createdAt,value
2019-02-16T00:01:21.565Z,1.91
2019-02-16T00:04:10.731Z,1.60
2019-02-16T00:07:00.880Z,1.63
2019-02-16T00:09:50.399Z,1.70
2019-02-16T00:12:40.005Z,1.70
2019-02-16T00:15:29.216Z,1.57
2019-02-16T00:18:19.047Z,1.80
2019-02-16T00:21:08.533Z,1.53
2019-02-16T00:23:58.740Z,1.45
2019-02-16T00:26:49.345Z,1.51
2019-02-16T00:29:39.596Z,1.60
2019-02-16T00:32:28.811Z,1.52
2019-02-16T00:35:21.340Z,1.56
2019-02-16T00:38:10.881Z,1.51
2019-02-16T00:41:05.567Z,1.38
2019-02-16T00:43:57.606Z,1.40
2019-02-16T00:46:47.475Z,1.51
2019-02-16T00:49:36.841Z,1.52
2019-02-16T00:52:26.083Z,1.43
2019-02-16T00:55:15.620Z,1.43
2019-02-16T00:58:05.118Z,1.36
2019-02-16T01:00:54.821Z,1.44
2019-02-16T01:03:44.718Z,1.38
2019-02-16T01:06:34.000Z,1.21
2019-02-16T01:09:23.834Z,1.18
2019-02-16T01:12:13.372Z,1.21
2019-02-16T01:15:02.995Z,1.19
2019-02-16T01:17:52.223Z,1.06
2019-02-16T01:20:41.925Z,1.04
2019-02-16T01:23:31.426Z,0.96
2019-02-16T01:26:20.950Z,0.83
2019-02-16T01:29:11.010Z,0.84
2019-02-16T01:35:36.719Z,0.94
2019-02-16T01:38:26.057Z,0.87
2019-02-16T01:41:18.165Z,0.76
2019-02-16T01:44:07.977Z,0.38
2019-02-16T01:46:57.361Z,0.55
2019-02-16T01:49:47.041Z,0.57
2019-02-16T01:52:36.591Z,0.70
2019-02-16T01:55:26.602Z,0.88
2019-02-16T01:58:16.977Z,0.77
2019-02-16T02:01:06.283Z,0.84
2019-02-16T02:03:55.818Z,0.74
2019-02-16T02:06:44.949Z,0.77
2019-02-16T02:09:34.776Z,0.79
2019-02-16T02:12:24.539Z,0.83
2019-02-16T02:15:14.042Z,0.76
2019-02-16T02:18:03.205Z,0.80
2019-02-16T02:20:53.227Z,0.84
2019-02-16T02:23:42.808Z,0.85
2019-02-16T02:26:31.965Z,0.85
2019-02-16T02:29:28.775Z,0.76
2019-02-16T02:32:18.946Z,0.73
2019-02-16T02:35:08.692Z,0.59
2019-02-16T02:37:57.974Z,0.60
2019-02-16T02:40:47.434Z,0.43
2019-02-16T02:43:36.689Z,0.34
2019-02-16T02:46:26.605Z,0.49
2019-02-16T02:49:15.823Z,0.50
2019-02-16T02:52:05.524Z,0.59
2019-02-16T02:54:54.976Z,0.59
2019-02-16T02:57:44.554Z,0.60
2019-02-16T03:00:33.738Z,0.46
2019-02-16T03:03:23.343Z,0.49
2019-02-16T03:06:12.885Z,0.58
2019-02-16T03:09:04.318Z,0.66
2019-02-16T03:11:53.994Z,0.62
2019-02-16T03:14:44.182Z,0.61
2019-02-16T03:17:33.362Z,0.67
2019-02-16T03:20:22.590Z,0.63
2019-02-16T03:23:14.340Z,0.67
2019-02-16T03:26:45.207Z,0.54
2019-02-16T03:29:57.620Z,0.33
2019-02-16T03:33:31.444Z,0.35
2019-02-16T03:36:56.851Z,0.33
2019-02-16T03:39:47.446Z,0.38
2019-02-16T03:42:37.661Z,0.45
2019-02-16T03:45:27.228Z,0.52
2019-02-16T03:48:17.199Z,0.60
2019-02-16T03:51:06.391Z,0.47
2019-02-16T03:53:55.791Z,0.50
2019-02-16T03:57:18.628Z,0.53
2019-02-16T04:00:08.966Z,0.49
2019-02-16T04:02:58.276Z,0.43
2019-02-16T04:05:48.144Z,0.42
2019-02-16T04:08:37.435Z,0.43
2019-02-16T04:11:26.603Z,0.35
2019-02-16T04:14:16.057Z,0.41
2019-02-16T04:17:05.332Z,0.45
2019-02-16T04:19:54.577Z,0.43
2019-02-16T04:22:44.699Z,0.48
2019-02-16T04:25:34.039Z,0.46
2019-02-16T04:28:23.568Z,0.41
2019-02-16T04:31:17.156Z,0.44
2019-02-16T04:34:06.569Z,0.50
2019-02-16T04:36:56.382Z,0.49
2019-02-16T04:39:45.585Z,0.56
2019-02-16T04:42:35.204Z,0.37
2019-02-16T04:45:24.450Z,0.19
2019-02-16T04:48:14.266Z,0.11
2019-02-16T04:51:03.459Z,0.13
2019-02-16T04:53:52.937Z,0.21
2019-02-16T04:56:42.230Z,0.29
2019-02-16T04:59:32.021Z,0.36
2019-02-16T05:02:22.331Z,0.27
2019-02-16T05:05:17.143Z,0.30
2019-02-16T05:08:06.266Z,0.27
2019-02-16T05:10:56.311Z,0.22
2019-02-16T05:13:45.698Z,0.25
2019-02-16T05:16:35.590Z,0.34
2019-02-16T05:19:24.834Z,0.31
2019-02-16T05:22:14.482Z,0.23
2019-02-16T05:25:04.025Z,0.20
2019-02-16T05:27:53.702Z,0.23
2019-02-16T05:30:42.982Z,0.28
2019-02-16T05:33:32.594Z,0.27
2019-02-16T05:36:22.080Z,0.30
2019-02-16T05:39:12.049Z,0.23
2019-02-16T05:42:01.522Z,0.24
2019-02-16T05:44:51.155Z,0.15
2019-02-16T05:47:42.257Z,0.09
2019-02-16T05:50:31.458Z,0.07
2019-02-16T05:53:20.755Z,0.06
2019-02-16T05:56:10.419Z,0.16
2019-02-16T05:59:00.013Z,0.11
2019-02-16T06:01:54.015Z,-0.03
2019-02-16T06:04:40.581Z,0.00
2019-02-16T06:07:30.305Z,0.02
2019-02-16T06:10:19.758Z,0.06
2019-02-16T06:13:09.577Z,0.03
2019-02-16T06:15:59.098Z,0.17
2019-02-16T06:18:49.045Z,0.13
2019-02-16T06:21:39.787Z,0.34
2019-02-16T06:24:29.697Z,0.10
2019-02-16T06:27:19.306Z,0.08
2019-02-16T06:30:09.073Z,0.11
2019-02-16T06:32:59.110Z,0.20
2019-02-16T06:35:55.455Z,0.21
2019-02-16T06:38:45.383Z,0.26
2019-02-16T06:41:35.072Z,0.15
2019-02-16T06:44:25.047Z,0.03
2019-02-16T06:47:18.602Z,-0.17
2019-02-16T06:50:08.655Z,-0.11
2019-02-16T06:52:58.336Z,0.03
2019-02-16T06:55:57.494Z,0.14
2019-02-16T06:58:46.763Z,0.21
2019-02-16T07:01:37.102Z,0.39
2019-02-16T07:04:27.036Z,0.41
2019-02-16T07:07:16.610Z,0.31
2019-02-16T07:10:07.504Z,0.35
2019-02-16T07:12:56.874Z,0.42
2019-02-16T07:15:51.477Z,0.44
2019-02-16T07:18:48.523Z,0.44
2019-02-16T07:21:37.822Z,0.47
2019-02-16T07:24:27.275Z,0.62
2019-02-16T07:27:16.913Z,0.69
2019-02-16T07:30:07.060Z,0.77
2019-02-16T07:32:56.193Z,0.88
2019-02-16T07:35:45.731Z,0.96
2019-02-16T07:38:34.972Z,0.93
2019-02-16T07:41:24.329Z,0.93
2019-02-16T07:44:21.792Z,0.86
2019-02-16T07:47:33.132Z,1.00
2019-02-16T07:50:36.742Z,1.14
2019-02-16T07:53:44.058Z,1.33
2019-02-16T07:56:52.758Z,1.36
2019-02-16T07:59:57.471Z,1.29
2019-02-16T08:02:56.156Z,1.38
2019-02-16T08:06:02.951Z,1.38
2019-02-16T08:09:06.150Z,1.49
2019-02-16T08:12:23.627Z,1.54
2019-02-16T08:15:31.481Z,1.67
2019-02-16T08:18:39.391Z,1.87
2019-02-16T08:21:48.038Z,1.90
2019-02-16T08:24:56.545Z,2.14
2019-02-16T08:28:04.112Z,2.33
2019-02-16T08:31:18.808Z,2.38
2019-02-16T08:34:26.926Z,2.67
2019-02-16T08:37:50.677Z,2.71
2019-02-16T08:40:45.826Z,2.94
2019-02-16T08:43:49.061Z,3.38
2019-02-16T08:46:56.176Z,3.58
2019-02-16T08:49:57.538Z,3.99
2019-02-16T08:52:55.318Z,4.41
2019-02-16T08:56:04.138Z,4.76
2019-02-16T08:59:04.818Z,5.12
2019-02-16T09:02:03.341Z,5.41
2019-02-16T09:05:23.702Z,6.18
2019-02-16T09:08:24.346Z,6.68
2019-02-16T09:11:34.255Z,7.17
2019-02-16T09:14:45.533Z,7.63
2019-02-16T09:17:52.522Z,8.38
2019-02-16T09:20:58.420Z,8.32
2019-02-16T09:24:13.271Z,9.12
2019-02-16T09:27:21.648Z,8.90
2019-02-16T09:30:28.969Z,9.00
2019-02-16T09:33:40.158Z,8.96
2019-02-16T09:36:38.523Z,9.24
2019-02-16T09:39:46.590Z,9.48
2019-02-16T09:42:55.202Z,9.39
2019-02-16T09:46:12.701Z,9.66
2019-02-16T09:49:13.791Z,9.84
2019-02-16T09:52:21.489Z,9.73
2019-02-16T09:55:38.567Z,10.08
2019-02-16T09:58:59.326Z,9.46
2019-02-16T10:02:10.725Z,9.56
2019-02-16T10:05:19.160Z,9.77
2019-02-16T10:08:27.740Z,9.72
2019-02-16T10:11:34.742Z,9.76
2019-02-16T10:14:43.635Z,10.19
2019-02-16T10:17:41.164Z,10.42
2019-02-16T10:20:48.506Z,11.00
2019-02-16T10:24:06.061Z,11.62
2019-02-16T10:27:32.328Z,12.27
2019-02-16T10:30:30.919Z,12.50
2019-02-16T10:33:39.335Z,12.97
2019-02-16T10:36:47.054Z,12.91
2019-02-16T10:39:41.683Z,12.85
2019-02-16T10:42:48.566Z,13.37
2019-02-16T10:45:57.575Z,13.93
2019-02-16T10:49:04.626Z,14.47
2019-02-16T10:52:11.512Z,14.67
2019-02-16T10:55:27.427Z,15.21
2019-02-16T10:58:35.818Z,16.17
2019-02-16T11:01:50.834Z,16.54
2019-02-16T11:04:47.906Z,17.22
2019-02-16T11:07:47.818Z,17.40
2019-02-16T11:10:59.026Z,17.24
2019-02-16T11:14:05.317Z,17.90
2019-02-16T11:17:19.320Z,18.40
2019-02-16T11:20:32.253Z,18.42
2019-02-16T11:23:41.089Z,18.89
2019-02-16T11:26:54.408Z,18.81
2019-02-16T11:30:02.262Z,18.73
2019-02-16T11:33:20.385Z,18.53
2019-02-16T11:36:34.568Z,18.74
2019-02-16T11:39:32.120Z,18.41
2019-02-16T11:42:32.529Z,18.52
2019-02-16T11:45:46.731Z,18.68
2019-02-16T11:52:23.706Z,18.93
2019-02-16T11:55:47.387Z,18.79
2019-02-16T11:59:02.861Z,19.29
2019-02-16T12:02:17.713Z,19.45
2019-02-16T12:05:17.595Z,17.81
2019-02-16T12:08:19.251Z,18.11
2019-02-16T12:11:26.451Z,14.21
2019-02-16T12:14:44.669Z,14.58
2019-02-16T12:17:59.072Z,15.43
2019-02-16T12:21:06.353Z,16.26
2019-02-16T12:24:07.470Z,17.08
2019-02-16T12:27:10.448Z,14.95
2019-02-16T12:30:31.160Z,14.35
2019-02-16T12:33:39.622Z,13.21
2019-02-16T12:36:38.193Z,12.24
2019-02-16T12:39:52.490Z,13.20
2019-02-16T12:43:04.167Z,13.03
2019-02-16T12:46:05.816Z,12.74
2019-02-16T12:49:05.455Z,13.29
2019-02-16T12:52:12.674Z,13.20
2019-02-16T12:55:39.347Z,12.99
2019-02-16T12:58:36.435Z,12.50
2019-02-16T13:01:57.566Z,12.25
2019-02-16T13:05:09.444Z,12.41
2019-02-16T13:08:20.636Z,12.52
2019-02-16T13:11:29.070Z,12.61
2019-02-16T13:14:31.935Z,12.84
2019-02-16T13:17:43.142Z,12.69
2019-02-16T13:20:40.491Z,12.13
2019-02-16T13:23:57.646Z,12.35
2019-02-16T13:27:00.694Z,12.24
2019-02-16T13:30:00.956Z,11.90
2019-02-16T13:33:08.893Z,12.17
2019-02-16T13:36:35.579Z,12.26
2019-02-16T13:39:35.762Z,12.40
2019-02-16T13:42:36.974Z,13.00
2019-02-16T13:45:44.155Z,12.73
2019-02-16T13:48:59.247Z,13.03
2019-02-16T13:52:11.183Z,13.24
2019-02-16T13:55:22.779Z,13.36
2019-02-16T13:58:17.776Z,12.61
2019-02-16T14:04:40.681Z,12.69
2019-02-16T14:07:55.093Z,12.91
2019-02-16T14:10:59.054Z,12.99
2019-02-16T14:14:06.294Z,13.62
2019-02-16T14:17:17.807Z,13.40
2019-02-16T14:20:08.319Z,13.42
2019-02-16T14:22:57.766Z,13.72
2019-02-16T14:25:48.791Z,13.53
2019-02-16T14:28:37.947Z,13.67
2019-02-16T14:31:28.720Z,13.46
2019-02-16T14:34:18.198Z,13.93
2019-02-16T14:37:13.031Z,13.70
2019-02-16T14:40:02.686Z,13.55
2019-02-16T14:42:51.938Z,14.06
2019-02-16T14:45:41.963Z,13.20
2019-02-16T14:48:31.388Z,13.08
2019-02-16T14:51:21.496Z,13.10
2019-02-16T14:54:10.864Z,13.16
2019-02-16T14:57:00.424Z,13.20
2019-02-16T14:59:50.014Z,13.22
2019-02-16T15:02:40.103Z,13.44
2019-02-16T15:05:29.668Z,13.22
2019-02-16T15:08:20.265Z,13.43
2019-02-16T15:11:14.671Z,13.58
2019-02-16T15:14:03.768Z,14.25
2019-02-16T15:16:53.440Z,13.81
2019-02-16T15:19:43.217Z,14.82
2019-02-16T15:22:32.300Z,13.61
2019-02-16T15:25:21.755Z,13.75
2019-02-16T15:28:10.914Z,12.01
2019-02-16T15:31:00.646Z,12.54
2019-02-16T15:33:55.724Z,11.90
2019-02-16T15:36:45.771Z,11.63
2019-02-16T15:39:35.037Z,10.87
2019-02-16T15:42:24.964Z,10.68
2019-02-16T15:45:20.335Z,10.65
2019-02-16T15:48:09.798Z,9.84
2019-02-16T15:50:59.128Z,9.28
2019-02-16T15:53:49.030Z,9.39
2019-02-16T15:56:38.160Z,8.95
2019-02-16T15:59:35.042Z,8.86
2019-02-16T16:02:18.711Z,8.42
2019-02-16T16:05:08.811Z,8.19
2019-02-16T16:08:11.573Z,8.21
2019-02-16T16:11:19.633Z,8.16
2019-02-16T16:14:25.466Z,8.26
2019-02-16T16:17:33.082Z,8.13
2019-02-16T16:20:41.608Z,7.62
2019-02-16T16:23:49.862Z,7.43
2019-02-16T16:26:58.695Z,7.56
2019-02-16T16:29:59.777Z,7.05
2019-02-16T16:33:23.472Z,6.90
2019-02-16T16:36:31.571Z,6.88
2019-02-16T16:39:51.961Z,6.80
2019-02-16T16:42:56.938Z,6.95
2019-02-16T16:45:56.393Z,7.00
2019-02-16T16:48:59.341Z,6.89
2019-02-16T16:52:10.909Z,6.96
2019-02-16T16:55:34.927Z,6.78
2019-02-16T16:58:48.844Z,6.51
2019-02-16T17:01:52.050Z,6.15
2019-02-16T17:04:55.178Z,6.20
2019-02-16T17:07:59.159Z,6.13
2019-02-16T17:11:14.775Z,5.88
2019-02-16T17:14:23.820Z,5.79
2019-02-16T17:17:35.719Z,5.83
2019-02-16T17:20:44.125Z,5.84
2019-02-16T17:23:55.884Z,5.64
2019-02-16T17:26:51.146Z,5.50
2019-02-16T17:29:59.939Z,5.05
2019-02-16T17:33:17.239Z,5.15
2019-02-16T17:36:28.414Z,5.28
2019-02-16T17:39:40.133Z,5.24
2019-02-16T17:42:52.113Z,4.99
2019-02-16T17:45:54.571Z,4.86
2019-02-16T17:48:54.732Z,4.71
2019-02-16T17:52:11.987Z,4.62
2019-02-16T17:55:19.264Z,4.41
2019-02-16T17:58:15.029Z,4.42
2019-02-16T18:01:38.783Z,4.35
2019-02-16T18:04:40.570Z,4.51
2019-02-16T18:07:50.035Z,4.41
2019-02-16T18:11:03.109Z,4.37
2019-02-16T18:14:05.996Z,4.26
2019-02-16T18:17:11.200Z,4.22
2019-02-16T18:20:10.458Z,4.10
2019-02-16T18:23:05.711Z,3.98
2019-02-16T18:26:13.268Z,3.81
2019-02-16T18:29:29.049Z,3.96
2019-02-16T18:32:40.551Z,3.89
2019-02-16T18:35:40.457Z,3.90
2019-02-16T18:38:38.231Z,3.87
2019-02-16T18:41:43.682Z,3.83
2019-02-16T18:44:58.021Z,3.95
2019-02-16T18:51:16.713Z,3.34
2019-02-16T18:54:14.991Z,3.41
2019-02-16T18:57:27.038Z,3.29
2019-02-16T19:00:50.615Z,3.31
2019-02-16T19:03:59.282Z,3.09
2019-02-16T19:07:11.178Z,3.21
2019-02-16T19:10:18.208Z,3.41
2019-02-16T19:13:18.448Z,3.42
2019-02-16T19:16:39.030Z,3.57
2019-02-16T19:19:50.569Z,3.36
2019-02-16T19:23:10.968Z,3.21
2019-02-16T19:26:16.683Z,3.33
2019-02-16T19:29:39.103Z,3.42
2019-02-16T19:32:50.100Z,3.32
2019-02-16T19:35:48.097Z,3.23
2019-02-16T19:38:50.803Z,3.18
2019-02-16T19:41:59.987Z,3.06
2019-02-16T19:45:05.929Z,3.09
2019-02-16T19:48:06.749Z,3.19
2019-02-16T19:51:09.037Z,3.30
2019-02-16T19:54:19.965Z,3.21
2019-02-16T19:57:37.897Z,3.07
2019-02-16T20:00:56.125Z,3.08
2019-02-16T20:04:05.294Z,2.86
2019-02-16T20:07:12.597Z,2.99
2019-02-16T20:10:20.725Z,2.93
2019-02-16T20:13:27.518Z,2.79
2019-02-16T20:16:35.995Z,2.82
2019-02-16T20:19:56.742Z,2.64
2019-02-16T20:23:01.411Z,2.66
2019-02-16T20:26:08.367Z,2.62
2019-02-16T20:29:23.362Z,2.54
2019-02-16T20:32:37.619Z,2.33
2019-02-16T20:35:42.580Z,2.49
2019-02-16T20:38:57.078Z,2.47
2019-02-16T20:42:21.219Z,2.32
2019-02-16T20:45:42.127Z,2.53
2019-02-16T20:48:44.500Z,2.48
2019-02-16T20:51:52.521Z,2.26
2019-02-16T20:54:46.913Z,2.20
2019-02-16T20:58:07.133Z,1.94
2019-02-16T21:01:02.200Z,1.88
2019-02-16T21:04:20.569Z,1.86
2019-02-16T21:07:37.719Z,1.72
2019-02-16T21:10:45.925Z,1.58
2019-02-16T21:13:52.318Z,1.68
2019-02-16T21:16:59.158Z,1.69
2019-02-16T21:20:19.709Z,1.63
2019-02-16T21:23:27.497Z,1.73
2019-02-16T21:26:39.850Z,1.59
2019-02-16T21:30:03.724Z,1.34
2019-02-16T21:33:15.739Z,1.59
2019-02-16T21:36:15.195Z,1.70
2019-02-16T21:39:24.235Z,1.66
2019-02-16T21:42:46.300Z,1.59
2019-02-16T21:45:47.612Z,1.72
2019-02-16T21:48:56.219Z,1.72
2019-02-16T21:52:03.764Z,1.69
2019-02-16T21:55:24.101Z,1.64
2019-02-16T21:58:32.152Z,1.63
2019-02-16T22:01:46.557Z,1.57
2019-02-16T22:04:55.239Z,1.50
2019-02-16T22:08:02.880Z,1.56
2019-02-16T22:11:00.148Z,1.55
2019-02-16T22:13:49.987Z,1.41
2019-02-16T22:16:39.530Z,1.49
2019-02-16T22:19:29.326Z,1.54
2019-02-16T22:22:18.774Z,1.50
2019-02-16T22:25:07.918Z,1.54
2019-02-16T22:27:57.534Z,1.50
2019-02-16T22:30:46.741Z,1.45
2019-02-16T22:33:36.429Z,1.46
2019-02-16T22:39:51.178Z,1.56
2019-02-16T22:42:40.757Z,1.58
2019-02-16T22:45:30.139Z,1.56
2019-02-16T22:48:19.266Z,1.74
2019-02-16T22:51:08.819Z,1.56
2019-02-16T22:53:58.262Z,1.72
2019-02-16T22:56:48.174Z,1.73
2019-02-16T22:59:37.712Z,1.77
2019-02-16T23:02:28.222Z,1.74
2019-02-16T23:05:17.422Z,1.66
2019-02-16T23:08:07.066Z,1.67
2019-02-16T23:10:56.566Z,1.53
2019-02-16T23:13:46.202Z,1.50
2019-02-16T23:16:35.719Z,1.55
2019-02-16T23:19:25.412Z,1.58
2019-02-16T23:22:14.863Z,1.45
2019-02-16T23:25:04.128Z,1.48
2019-02-16T23:27:54.142Z,1.27
2019-02-16T23:30:43.452Z,1.33
2019-02-16T23:33:33.059Z,1.32
2019-02-16T23:36:22.307Z,1.36
2019-02-16T23:39:13.261Z,1.45
2019-02-16T23:42:02.954Z,1.41
2019-02-16T23:44:52.320Z,1.60
2019-02-16T23:47:41.481Z,1.53
2019-02-16T23:50:31.389Z,1.54
2019-02-16T23:53:20.987Z,1.44
2019-02-16T23:56:10.956Z,1.51
2019-02-16T23:59:00.160Z,1.42
